createdAt,value
2018-11-23T00:00:11.597Z,19.47
2018-11-23T00:02:38.432Z,23.80
2018-11-23T00:05:05.264Z,23.47
2018-11-23T00:07:32.111Z,20.80
2018-11-23T00:09:58.944Z,22.65
2018-11-23T00:12:25.787Z,20.20
2018-11-23T00:14:52.643Z,23.45
2018-11-23T00:17:19.491Z,20.00
2018-11-23T00:19:46.335Z,24.02
2018-11-23T00:22:13.167Z,24.43
2018-11-23T00:24:40.049Z,19.63
2018-11-23T00:27:06.882Z,23.60
2018-11-23T00:29:33.767Z,24.30
2018-11-23T00:32:00.619Z,20.30
2018-11-23T00:34:27.471Z,23.00
2018-11-23T00:36:54.325Z,20.10
2018-11-23T00:39:21.343Z,23.75
2018-11-23T00:41:48.198Z,24.72
2018-11-23T00:44:15.039Z,21.77
2018-11-23T00:46:41.872Z,23.77
2018-11-23T00:49:08.791Z,21.40
2018-11-23T00:51:35.631Z,24.00
2018-11-23T00:54:02.475Z,21.30
2018-11-23T00:56:29.308Z,23.27
2018-11-23T00:58:56.184Z,24.55
2018-11-23T01:01:23.036Z,19.90
2018-11-23T01:03:49.887Z,24.65
2018-11-23T01:06:16.735Z,20.37
2018-11-23T01:08:43.579Z,24.52
2018-11-23T01:11:10.404Z,24.50
2018-11-23T01:13:37.254Z,21.30
2018-11-23T01:16:04.079Z,24.30
2018-11-23T01:18:30.919Z,26.02
2018-11-23T01:20:57.763Z,21.37
2018-11-23T01:23:24.607Z,26.20
2018-11-23T01:25:51.563Z,25.05
2018-11-23T01:28:18.418Z,26.40
2018-11-23T01:30:45.254Z,20.97
2018-11-23T01:33:12.105Z,24.85
2018-11-23T01:35:38.931Z,25.08
2018-11-23T01:38:05.772Z,21.30
2018-11-23T01:40:32.603Z,23.80
2018-11-23T01:42:59.499Z,25.57
2018-11-23T01:45:26.352Z,19.93
2018-11-23T01:47:53.188Z,24.55
2018-11-23T01:50:21.437Z,25.95
2018-11-23T01:52:49.051Z,25.80
2018-11-23T01:55:16.723Z,22.50
2018-11-23T01:57:43.859Z,24.20
2018-11-23T02:00:13.160Z,24.65
2018-11-23T02:02:40.008Z,21.60
2018-11-23T02:05:07.366Z,24.77
2018-11-23T02:07:34.227Z,25.90
2018-11-23T02:10:01.072Z,20.23
2018-11-23T02:12:27.923Z,23.70
2018-11-23T02:14:54.803Z,25.20
2018-11-23T02:17:23.120Z,21.10
2018-11-23T02:19:51.080Z,24.95
2018-11-23T02:22:17.927Z,26.40
2018-11-23T02:24:44.767Z,21.60
2018-11-23T02:27:11.618Z,23.85
2018-11-23T02:29:38.464Z,26.10
2018-11-23T02:32:05.315Z,21.60
2018-11-23T02:34:32.153Z,25.15
2018-11-23T02:36:58.988Z,24.67
2018-11-23T02:39:25.840Z,21.03
2018-11-23T02:41:52.680Z,23.70
2018-11-23T02:44:19.532Z,23.92
2018-11-23T02:46:46.480Z,20.60
2018-11-23T02:49:13.309Z,24.77
2018-11-23T02:51:40.191Z,21.23
2018-11-23T02:54:07.060Z,25.10
2018-11-23T02:56:44.024Z,25.00
2018-11-23T02:59:10.880Z,22.37
2018-11-23T03:01:37.955Z,24.50
2018-11-23T03:04:05.497Z,25.15
2018-11-23T03:06:32.339Z,21.43
2018-11-23T03:08:59.179Z,24.63
2018-11-23T03:11:26.024Z,25.72
2018-11-23T03:13:52.868Z,21.70
2018-11-23T03:16:19.758Z,24.85
2018-11-23T03:18:46.588Z,26.02
2018-11-23T03:21:13.423Z,21.30
2018-11-23T03:23:40.263Z,24.00
2018-11-23T03:26:07.107Z,25.30
2018-11-23T03:28:33.957Z,23.20
2018-11-23T03:31:00.876Z,24.75
2018-11-23T03:33:27.679Z,26.20
2018-11-23T03:35:54.515Z,26.55
2018-11-23T03:38:21.363Z,21.00
2018-11-23T03:40:48.202Z,24.80
2018-11-23T03:43:15.033Z,25.65
2018-11-23T03:45:41.881Z,22.27
2018-11-23T03:48:08.719Z,26.52
2018-11-23T03:50:35.567Z,26.60
2018-11-23T03:53:02.402Z,26.42
2018-11-23T03:55:29.251Z,22.37
2018-11-23T03:57:56.081Z,26.42
2018-11-23T04:00:23.384Z,27.80
2018-11-23T04:02:50.603Z,22.83
2018-11-23T04:05:17.724Z,26.73
2018-11-23T04:07:44.704Z,28.03
2018-11-23T04:10:12.696Z,21.77
2018-11-23T04:12:39.543Z,25.35
2018-11-23T04:15:06.757Z,25.45
2018-11-23T04:17:33.608Z,23.27
2018-11-23T04:20:00.432Z,25.95
2018-11-23T04:22:27.271Z,25.75
2018-11-23T04:24:54.124Z,21.90
2018-11-23T04:27:20.958Z,23.77
2018-11-23T04:29:47.799Z,25.40
2018-11-23T04:32:14.648Z,20.83
2018-11-23T04:34:41.475Z,23.50
2018-11-23T04:37:08.324Z,24.37
2018-11-23T04:39:35.220Z,25.15
2018-11-23T04:42:02.091Z,20.43
2018-11-23T04:44:28.927Z,25.35
2018-11-23T04:46:55.775Z,25.90
2018-11-23T04:49:22.630Z,19.53
2018-11-23T04:51:49.468Z,23.83
2018-11-23T04:54:16.303Z,23.27
2018-11-23T04:56:43.143Z,20.27
2018-11-23T04:59:09.978Z,23.55
2018-11-23T05:01:36.825Z,24.87
2018-11-23T05:04:03.827Z,20.70
2018-11-23T05:06:30.693Z,24.35
2018-11-23T05:08:57.537Z,26.23
2018-11-23T05:11:24.383Z,21.50
2018-11-23T05:13:51.384Z,26.17
2018-11-23T05:16:18.305Z,25.37
2018-11-23T05:18:45.748Z,21.20
2018-11-23T05:21:12.620Z,27.00
2018-11-23T05:23:39.455Z,26.30
2018-11-23T05:26:06.324Z,26.87
2018-11-23T05:28:33.159Z,25.87
2018-11-23T05:31:00.058Z,25.95
2018-11-23T05:33:26.900Z,27.58
2018-11-23T05:35:53.751Z,21.10
2018-11-23T05:38:20.584Z,24.75
2018-11-23T05:40:47.423Z,26.07
2018-11-23T05:43:14.254Z,22.23
2018-11-23T05:45:41.088Z,26.40
2018-11-23T05:48:07.913Z,27.62
2018-11-23T05:50:34.748Z,22.00
2018-11-23T05:53:01.592Z,26.30
2018-11-23T05:55:28.459Z,26.20
2018-11-23T05:57:55.403Z,22.93
2018-11-23T06:00:24.515Z,24.65
2018-11-23T06:02:51.463Z,26.33
2018-11-23T06:05:18.314Z,22.53
2018-11-23T06:07:45.156Z,25.30
2018-11-23T06:10:14.155Z,26.75
2018-11-23T06:12:41.159Z,22.10
2018-11-23T06:15:10.087Z,27.55
2018-11-23T06:17:36.915Z,27.52
2018-11-23T06:20:05.031Z,22.87
2018-11-23T06:22:32.002Z,27.00
2018-11-23T06:24:58.823Z,27.77
2018-11-23T06:27:25.659Z,22.27
2018-11-23T06:29:52.487Z,24.63
2018-11-23T06:32:30.940Z,26.70
2018-11-23T06:34:57.783Z,22.77
2018-11-23T06:37:24.612Z,26.70
2018-11-23T06:39:51.696Z,25.45
2018-11-23T06:42:18.536Z,23.23
2018-11-23T06:44:45.362Z,24.40
2018-11-23T06:47:12.191Z,26.60
2018-11-23T06:49:39.031Z,21.60
2018-11-23T06:52:05.859Z,24.80
2018-11-23T06:54:32.697Z,24.27
2018-11-23T06:56:59.535Z,20.90
2018-11-23T06:59:26.358Z,24.63
2018-11-23T07:01:53.411Z,26.25
2018-11-23T07:04:20.268Z,21.70
2018-11-23T07:06:47.175Z,25.20
2018-11-23T07:09:13.990Z,26.60
2018-11-23T07:11:40.848Z,25.55
2018-11-23T07:14:07.691Z,22.30
2018-11-23T07:16:34.529Z,26.00
2018-11-23T07:19:01.379Z,27.10
2018-11-23T07:21:28.233Z,21.43
2018-11-23T07:23:55.075Z,25.75
2018-11-23T07:26:21.922Z,21.70
2018-11-23T07:28:48.759Z,26.05
2018-11-23T07:31:15.583Z,25.95
2018-11-23T07:33:42.420Z,22.33
2018-11-23T07:36:09.248Z,25.80
2018-11-23T07:38:36.076Z,26.10
2018-11-23T07:41:14.696Z,23.33
2018-11-23T07:43:41.560Z,26.70
2018-11-23T07:46:08.468Z,25.60
2018-11-23T07:48:35.307Z,21.57
2018-11-23T07:51:02.143Z,25.90
2018-11-23T07:53:28.975Z,27.13
2018-11-23T07:55:55.831Z,21.60
2018-11-23T07:58:22.687Z,26.05
2018-11-23T08:00:49.551Z,27.70
2018-11-23T08:03:16.395Z,27.40
2018-11-23T08:05:43.230Z,24.07
2018-11-23T08:08:10.064Z,24.90
2018-11-23T08:10:36.488Z,26.37
2018-11-23T08:13:03.343Z,22.97
2018-11-23T08:15:30.180Z,25.43
2018-11-23T08:17:57.019Z,27.73
2018-11-23T08:20:24.628Z,22.10
2018-11-23T08:22:51.512Z,24.60
2018-11-23T08:25:19.640Z,20.67
2018-11-23T08:27:47.255Z,25.35
2018-11-23T08:30:17.415Z,25.90
2018-11-23T08:32:44.355Z,23.07
2018-11-23T08:35:11.302Z,26.15
2018-11-23T08:37:38.471Z,25.37
2018-11-23T08:40:10.371Z,27.70
2018-11-23T08:42:37.212Z,27.22
2018-11-23T08:45:06.300Z,27.10
2018-11-23T08:47:33.131Z,27.00
2018-11-23T08:49:59.991Z,21.70
2018-11-23T08:52:26.835Z,26.75
2018-11-23T08:54:53.669Z,26.50
2018-11-23T08:57:20.527Z,22.90
2018-11-23T08:59:47.362Z,26.97
2018-11-23T09:02:14.199Z,23.07
2018-11-23T09:04:41.020Z,26.30
2018-11-23T09:07:07.868Z,23.50
2018-11-23T09:09:34.721Z,26.90
2018-11-23T09:12:01.544Z,29.05
2018-11-23T09:14:28.421Z,25.17
2018-11-23T09:16:55.268Z,26.30
2018-11-23T09:19:22.112Z,23.70
2018-11-23T09:21:48.941Z,26.10
2018-11-23T09:24:15.803Z,24.63
2018-11-23T09:26:42.639Z,27.05
2018-11-23T09:29:09.483Z,27.40
2018-11-23T09:31:36.315Z,27.52
2018-11-23T09:34:03.168Z,23.90
2018-11-23T09:36:29.987Z,26.85
2018-11-23T09:38:56.827Z,27.98
2018-11-23T09:41:23.655Z,25.40
2018-11-23T09:43:50.499Z,28.07
2018-11-23T09:46:17.362Z,25.07
2018-11-23T09:48:44.175Z,21.83
2018-11-23T09:51:11.056Z,23.37
2018-11-23T09:53:37.891Z,26.33
2018-11-23T09:56:04.739Z,25.80
2018-11-23T09:58:31.560Z,23.77
2018-11-23T10:00:58.392Z,27.20
2018-11-23T10:03:25.252Z,23.53
2018-11-23T10:05:52.083Z,23.30
2018-11-23T10:08:18.929Z,26.27
2018-11-23T10:10:45.771Z,24.33
2018-11-23T10:13:12.607Z,24.40
2018-11-23T10:15:39.500Z,23.53
2018-11-23T10:18:06.364Z,23.30
2018-11-23T10:20:33.934Z,22.13
2018-11-23T10:23:00.784Z,21.70
2018-11-23T10:25:29.768Z,26.73
2018-11-23T10:27:56.761Z,23.23
2018-11-23T10:30:24.907Z,22.97
2018-11-23T10:32:52.927Z,24.00
2018-11-23T10:35:19.737Z,22.67
2018-11-23T10:37:47.847Z,23.67
2018-11-23T10:40:18.088Z,21.30
2018-11-23T10:42:45.157Z,20.90
2018-11-23T10:45:14.844Z,21.67
2018-11-23T10:47:41.701Z,22.23
2018-11-23T10:50:11.188Z,22.20
2018-11-23T10:52:38.120Z,22.17
2018-11-23T10:55:07.039Z,21.87
2018-11-23T10:57:33.971Z,20.80
2018-11-23T11:00:00.807Z,21.23
2018-11-23T11:02:33.310Z,21.97
2018-11-23T11:05:05.852Z,21.93
2018-11-23T11:07:32.760Z,20.80
2018-11-23T11:09:59.595Z,21.73
2018-11-23T11:12:26.970Z,21.57
2018-11-23T11:14:53.815Z,20.93
2018-11-23T11:17:37.755Z,22.17
2018-11-23T11:20:17.585Z,25.88
2018-11-23T11:23:15.055Z,25.55
2018-11-23T11:25:41.982Z,25.60
2018-11-23T11:28:08.899Z,26.50
2018-11-23T11:30:35.750Z,21.63
2018-11-23T11:33:02.615Z,22.67
2018-11-23T11:35:29.460Z,20.80
2018-11-23T11:37:56.359Z,20.43
2018-11-23T11:40:23.199Z,21.10
2018-11-23T11:42:50.179Z,21.40
2018-11-23T11:45:18.117Z,21.53
2018-11-23T11:47:45.474Z,21.10
2018-11-23T11:50:12.940Z,21.20
2018-11-23T11:52:40.952Z,19.00
2018-11-23T11:55:09.883Z,19.93
2018-11-23T11:57:36.822Z,22.47
2018-11-23T12:00:03.943Z,21.10
2018-11-23T12:02:30.791Z,25.62
2018-11-23T12:04:57.658Z,23.00
2018-11-23T12:07:24.486Z,22.70
2018-11-23T12:09:51.397Z,24.90
2018-11-23T12:12:18.379Z,25.10
2018-11-23T12:14:45.287Z,24.90
2018-11-23T12:17:12.187Z,21.70
2018-11-23T12:19:39.030Z,20.47
2018-11-23T12:22:05.879Z,20.87
2018-11-23T12:24:32.716Z,20.60
2018-11-23T12:26:59.660Z,21.80
2018-11-23T12:29:26.503Z,21.80
2018-11-23T12:31:53.444Z,21.77
2018-11-23T12:34:20.320Z,20.30
2018-11-23T12:36:47.187Z,19.97
2018-11-23T12:39:14.025Z,20.70
2018-11-23T12:41:40.911Z,23.83
2018-11-23T12:44:07.807Z,23.90
2018-11-23T12:46:34.631Z,22.10
2018-11-23T12:49:01.491Z,21.70
2018-11-23T12:51:28.336Z,21.40
2018-11-23T12:53:55.183Z,20.13
2018-11-23T12:56:22.043Z,21.10
2018-11-23T12:58:48.955Z,22.23
2018-11-23T13:01:15.794Z,24.40
2018-11-23T13:03:42.639Z,21.23
2018-11-23T13:06:09.566Z,21.50
2018-11-23T13:08:36.377Z,23.10
2018-11-23T13:11:03.231Z,21.47
2018-11-23T13:13:30.087Z,21.57
2018-11-23T13:15:56.939Z,22.60
2018-11-23T13:18:23.807Z,20.37
2018-11-23T13:20:50.664Z,18.93
2018-11-23T13:23:17.527Z,19.37
2018-11-23T13:25:44.378Z,25.67
2018-11-23T13:28:11.227Z,25.50
2018-11-23T13:30:38.051Z,24.50
2018-11-23T13:33:04.965Z,22.53
2018-11-23T13:35:31.809Z,23.63
2018-11-23T13:37:58.656Z,21.90
2018-11-23T13:40:26.462Z,25.93
2018-11-23T13:42:54.231Z,23.13
2018-11-23T13:45:22.363Z,22.97
2018-11-23T13:47:49.204Z,22.33
2018-11-23T13:50:18.451Z,21.30
2018-11-23T13:52:46.147Z,22.27
2018-11-23T13:55:13.034Z,22.77
2018-11-23T13:57:39.872Z,18.90
2018-11-23T14:00:13.908Z,15.07
2018-11-23T14:02:40.743Z,12.13
2018-11-23T14:05:09.835Z,13.53
2018-11-23T14:07:36.676Z,12.53
2018-11-23T14:10:05.210Z,10.97
2018-11-23T14:12:32.106Z,20.80
2018-11-23T14:14:58.944Z,20.80
2018-11-23T14:17:25.793Z,13.80
2018-11-23T14:19:52.647Z,14.53
2018-11-23T14:22:19.487Z,10.97
2018-11-23T14:24:46.331Z,11.10
2018-11-23T14:27:13.179Z,10.67
2018-11-23T14:29:40.024Z,12.47
2018-11-23T14:32:06.874Z,11.10
2018-11-23T14:34:33.711Z,10.83
2018-11-23T14:37:00.559Z,9.90
2018-11-23T14:39:27.399Z,12.03
2018-11-23T14:41:54.238Z,12.03
2018-11-23T14:44:21.080Z,11.20
2018-11-23T14:46:47.945Z,11.33
2018-11-23T14:49:14.852Z,10.90
2018-11-23T14:51:41.739Z,11.00
2018-11-23T14:54:08.579Z,12.10
2018-11-23T14:56:35.427Z,10.70
2018-11-23T14:59:02.327Z,11.80
2018-11-23T15:01:29.155Z,11.77
2018-11-23T15:03:55.995Z,10.60
2018-11-23T15:06:22.823Z,11.80
2018-11-23T15:08:49.669Z,11.73
2018-11-23T15:11:16.581Z,11.10
2018-11-23T15:13:43.427Z,11.27
2018-11-23T15:16:10.263Z,12.47
2018-11-23T15:18:37.111Z,12.40
2018-11-23T15:21:04.360Z,11.20
2018-11-23T15:23:31.259Z,11.63
2018-11-23T15:25:58.092Z,11.23
2018-11-23T15:28:24.927Z,11.33
2018-11-23T15:30:51.776Z,11.40
2018-11-23T15:33:18.599Z,10.47
2018-11-23T15:35:45.607Z,11.17
2018-11-23T15:38:14.136Z,11.17
2018-11-23T15:40:41.024Z,10.17
2018-11-23T15:43:09.370Z,10.47
2018-11-23T15:45:36.519Z,10.40
2018-11-23T15:48:03.563Z,10.73
2018-11-23T15:50:31.851Z,11.20
2018-11-23T15:52:58.679Z,10.60
2018-11-23T15:55:27.222Z,10.70
2018-11-23T15:57:55.367Z,10.77
2018-11-23T16:00:25.822Z,10.80
2018-11-23T16:02:53.027Z,13.18
2018-11-23T16:05:19.977Z,10.50
2018-11-23T16:07:47.055Z,9.77
2018-11-23T16:10:19.563Z,11.37
2018-11-23T16:13:06.826Z,9.87
2018-11-23T16:15:31.011Z,10.60
2018-11-23T16:17:58.547Z,12.10
2018-11-23T16:20:27.742Z,11.27
2018-11-23T16:22:56.023Z,10.90
2018-11-23T16:25:22.963Z,10.17
2018-11-23T16:27:51.303Z,11.20
2018-11-23T16:30:20.954Z,11.47
2018-11-23T16:32:49.031Z,12.50
2018-11-23T16:35:18.482Z,10.20
2018-11-23T16:37:45.496Z,10.80
2018-11-23T16:40:13.773Z,12.70
2018-11-23T16:42:40.690Z,11.70
2018-11-23T16:45:16.923Z,11.30
2018-11-23T16:47:44.207Z,10.70
2018-11-23T16:50:11.486Z,10.47
2018-11-23T16:52:38.731Z,10.47
2018-11-23T16:55:07.783Z,10.40
2018-11-23T16:57:34.011Z,11.00
2018-11-23T17:00:00.912Z,10.23
2018-11-23T17:02:27.754Z,10.17
2018-11-23T17:04:54.589Z,11.43
2018-11-23T17:07:21.969Z,10.80
2018-11-23T17:09:48.904Z,10.50
2018-11-23T17:12:15.857Z,10.80
2018-11-23T17:14:42.735Z,10.50
2018-11-23T17:17:09.588Z,10.40
2018-11-23T17:19:36.420Z,11.03
2018-11-23T17:22:03.436Z,11.70
2018-11-23T17:24:30.265Z,11.60
2018-11-23T17:26:57.199Z,13.70
2018-11-23T17:29:24.019Z,11.63
2018-11-23T17:31:50.844Z,11.50
2018-11-23T17:34:17.671Z,11.67
2018-11-23T17:36:44.524Z,11.00
2018-11-23T17:39:11.532Z,14.13
2018-11-23T17:41:38.419Z,12.37
2018-11-23T17:44:05.395Z,13.23
2018-11-23T17:46:32.255Z,11.67
2018-11-23T17:48:59.123Z,10.57
2018-11-23T17:51:25.983Z,11.37
2018-11-23T17:53:52.824Z,14.58
2018-11-23T17:56:19.745Z,13.30
2018-11-23T17:58:46.703Z,12.77
2018-11-23T18:01:13.557Z,14.38
2018-11-23T18:03:40.439Z,15.05
2018-11-23T18:06:07.319Z,13.23
2018-11-23T18:08:38.623Z,13.33
2018-11-23T18:11:01.100Z,12.67
2018-11-23T18:13:27.984Z,12.23
2018-11-23T18:15:54.883Z,12.20
2018-11-23T18:18:21.725Z,12.80
2018-11-23T18:20:48.592Z,12.90
2018-11-23T18:23:15.475Z,11.10
2018-11-23T18:25:42.359Z,12.10
2018-11-23T18:28:09.235Z,13.60
2018-11-23T18:30:36.091Z,12.83
2018-11-23T18:33:04.525Z,12.97
2018-11-23T18:35:31.415Z,13.30
2018-11-23T18:37:58.384Z,12.70
2018-11-23T18:40:25.239Z,13.43
2018-11-23T18:42:52.480Z,16.70
2018-11-23T18:45:19.368Z,15.10
2018-11-23T18:47:46.221Z,13.10
2018-11-23T18:50:14.188Z,13.97
2018-11-23T18:52:41.099Z,14.00
2018-11-23T18:55:09.011Z,13.30
2018-11-23T18:57:35.889Z,13.83
2018-11-23T19:00:02.792Z,13.53
2018-11-23T19:02:29.731Z,14.87
2018-11-23T19:04:56.571Z,14.07
2018-11-23T19:07:23.501Z,15.07
2018-11-23T19:09:50.323Z,14.00
2018-11-23T19:12:17.176Z,14.93
2018-11-23T19:14:44.012Z,15.57
2018-11-23T19:17:10.884Z,14.93
2018-11-23T19:19:37.796Z,14.80
2018-11-23T19:22:04.907Z,15.13
2018-11-23T19:24:31.787Z,14.60
2018-11-23T19:26:58.624Z,15.63
2018-11-23T19:29:25.507Z,15.80
2018-11-23T19:31:52.427Z,15.97
2018-11-23T19:34:19.290Z,16.73
2018-11-23T19:36:46.203Z,15.80
2018-11-23T19:39:13.067Z,17.90
2018-11-23T19:41:40.015Z,17.60
2018-11-23T19:44:06.928Z,21.00
2018-11-23T19:46:33.884Z,19.30
2018-11-23T19:49:00.711Z,17.20
2018-11-23T19:51:27.652Z,18.37
2018-11-23T19:53:54.559Z,18.40
2018-11-23T19:56:21.404Z,21.50
2018-11-23T19:58:48.302Z,20.07
2018-11-23T20:01:15.139Z,17.40
2018-11-23T20:03:42.003Z,18.50
2018-11-23T20:06:08.911Z,18.90
2018-11-23T20:08:36.299Z,17.80
2018-11-23T20:11:03.149Z,18.00
2018-11-23T20:13:30.009Z,17.57
2018-11-23T20:15:56.893Z,23.60
2018-11-23T20:18:23.764Z,21.93
2018-11-23T20:20:50.728Z,19.97
2018-11-23T20:23:17.732Z,20.90
2018-11-23T20:25:44.676Z,24.95
2018-11-23T20:28:11.625Z,19.43
2018-11-23T20:30:42.590Z,24.43
2018-11-23T20:33:05.483Z,20.67
2018-11-23T20:35:32.331Z,17.90
2018-11-23T20:37:59.295Z,19.87
2018-11-23T20:40:26.275Z,19.67
2018-11-23T20:42:53.156Z,19.97
2018-11-23T20:45:20.046Z,21.40
2018-11-23T20:47:46.876Z,20.63
2018-11-23T20:50:14.599Z,20.63
2018-11-23T20:52:41.456Z,18.90
2018-11-23T20:55:12.170Z,21.33
2018-11-23T20:57:39.000Z,20.97
2018-11-23T21:00:11.251Z,21.40
2018-11-23T21:02:38.161Z,15.80
2018-11-23T21:05:06.767Z,15.27
2018-11-23T21:07:33.617Z,16.65
2018-11-23T21:10:00.529Z,15.70
2018-11-23T21:12:27.484Z,12.40
2018-11-23T21:14:54.363Z,13.43
2018-11-23T21:17:21.244Z,12.03
2018-11-23T21:19:48.092Z,15.80
2018-11-23T21:22:14.915Z,14.60
2018-11-23T21:24:41.771Z,14.60
2018-11-23T21:27:08.609Z,13.07
2018-11-23T21:29:35.468Z,13.57
2018-11-23T21:32:02.291Z,15.80
2018-11-23T21:34:29.144Z,13.50
2018-11-23T21:36:55.976Z,15.80
2018-11-23T21:39:22.835Z,14.13
2018-11-23T21:41:49.671Z,15.50
2018-11-23T21:44:16.520Z,16.82
2018-11-23T21:46:43.396Z,13.63
2018-11-23T21:49:10.244Z,16.00
2018-11-23T21:51:37.083Z,14.33
2018-11-23T21:54:03.912Z,16.60
2018-11-23T21:56:30.759Z,13.80
2018-11-23T21:58:57.595Z,15.75
2018-11-23T22:01:24.465Z,13.67
2018-11-23T22:03:51.300Z,15.40
2018-11-23T22:06:18.136Z,16.17
2018-11-23T22:08:44.979Z,14.50
2018-11-23T22:11:11.824Z,15.75
2018-11-23T22:13:38.719Z,16.17
2018-11-23T22:16:05.611Z,13.70
2018-11-23T22:18:32.451Z,14.87
2018-11-23T22:20:59.300Z,14.00
2018-11-23T22:23:26.135Z,16.10
2018-11-23T22:25:52.980Z,13.80
2018-11-23T22:28:19.818Z,16.50
2018-11-23T22:30:46.667Z,15.63
2018-11-23T22:33:13.512Z,17.20
2018-11-23T22:35:40.355Z,17.45
2018-11-23T22:38:07.199Z,15.00
2018-11-23T22:40:34.032Z,17.92
2018-11-23T22:43:00.891Z,14.83
2018-11-23T22:45:27.719Z,17.50
2018-11-23T22:47:54.559Z,18.67
2018-11-23T22:50:22.214Z,20.00
2018-11-23T22:52:49.095Z,16.20
2018-11-23T22:55:16.749Z,18.80
2018-11-23T22:57:43.593Z,17.63
2018-11-23T23:00:18.539Z,19.85
2018-11-23T23:02:45.427Z,15.97
2018-11-23T23:05:12.288Z,17.80
2018-11-23T23:07:39.128Z,18.60
2018-11-23T23:10:06.335Z,16.23
2018-11-23T23:12:33.181Z,19.70
2018-11-23T23:15:00.065Z,16.90
2018-11-23T23:17:26.907Z,15.87
2018-11-23T23:19:53.755Z,15.17
2018-11-23T23:22:20.583Z,20.30
2018-11-23T23:24:47.436Z,19.52
2018-11-23T23:27:14.314Z,16.13
2018-11-23T23:29:41.155Z,20.15
2018-11-23T23:32:08.004Z,17.03
2018-11-23T23:34:34.827Z,19.27
2018-11-23T23:37:01.660Z,20.05
2018-11-23T23:39:28.516Z,17.60
2018-11-23T23:41:55.355Z,19.45
2018-11-23T23:44:22.200Z,17.07
2018-11-23T23:46:49.051Z,19.50
2018-11-23T23:49:15.891Z,15.67
2018-11-23T23:51:42.724Z,19.23
2018-11-23T23:54:09.567Z,15.90
2018-11-23T23:56:36.391Z,14.63
2018-11-23T23:59:03.280Z,18.65
